sensor_id;sensor_type;location;lat;lon;timestamp;P1;durP1;ratioP1;P2;durP2;ratioP2
80115;SDS011;69423;47.608;19.366;2023-05-10T00:00:25;6.33;;;6.17;;
80115;SDS011;69423;47.608;19.366;2023-05-10T00:00:56;6.40;;;6.33;;
80115;SDS011;69423;47.608;19.366;2023-05-10T00:01:27;6.57;;;6.37;;
80115;SDS011;69423;47.608;19.366;2023-05-10T00:01:58;6.17;;;6.07;;
80115;SDS011;69423;47.608;19.366;2023-05-10T00:02:29;6.43;;;6.33;;
80115;SDS011;69423;47.608;19.366;2023-05-10T00:03:00;6.00;;;5.93;;
80115;SDS011;69423;47.608;19.366;2023-05-10T00:03:30;6.20;;;6.07;;
80115;SDS011;69423;47.608;19.366;2023-05-10T00:04:01;6.63;;;6.47;;
80115;SDS011;69423;47.608;19.366;2023-05-10T00:04:32;6.40;;;6.20;;
80115;SDS011;69423;47.608;19.366;2023-05-10T00:05:04;6.17;;;6.03;;
80115;SDS011;69423;47.608;19.366;2023-05-10T00:05:35;6.30;;;6.10;;
80115;SDS011;69423;47.608;19.366;2023-05-10T00:06:06;6.17;;;6.13;;
80115;SDS011;69423;47.608;19.366;2023-05-10T00:06:37;6.20;;;6.17;;
80115;SDS011;69423;47.608;19.366;2023-05-10T00:07:08;5.93;;;5.93;;
80115;SDS011;69423;47.608;19.366;2023-05-10T00:07:39;6.03;;;5.87;;
80115;SDS011;69423;47.608;19.366;2023-05-10T00:08:10;5.93;;;5.93;;
80115;SDS011;69423;47.608;19.366;2023-05-10T00:08:40;6.43;;;6.43;;
80115;SDS011;69423;47.608;19.366;2023-05-10T00:09:11;6.33;;;6.33;;
80115;SDS011;69423;47.608;19.366;2023-05-10T00:09:42;6.07;;;6.07;;
80115;SDS011;69423;47.608;19.366;2023-05-10T00:10:13;5.90;;;5.90;;
80115;SDS011;69423;47.608;19.366;2023-05-10T00:10:45;6.10;;;6.10;;
80115;SDS011;69423;47.608;19.366;2023-05-10T00:11:15;5.80;;;5.80;;
80115;SDS011;69423;47.608;19.366;2023-05-10T00:11:46;6.37;;;6.37;;
80115;SDS011;69423;47.608;19.366;2023-05-10T00:12:17;6.40;;;6.40;;
80115;SDS011;69423;47.608;19.366;2023-05-10T00:12:48;6.07;;;6.07;;
80115;SDS011;69423;47.608;19.366;2023-05-10T00:13:19;6.20;;;6.13;;
80115;SDS011;69423;47.608;19.366;2023-05-10T00:13:50;6.83;;;6.67;;
80115;SDS011;69423;47.608;19.366;2023-05-10T00:14:20;7.20;;;6.97;;
80115;SDS011;69423;47.608;19.366;2023-05-10T00:14:51;7.03;;;6.73;;
80115;SDS011;69423;47.608;19.366;2023-05-10T00:15:22;6.57;;;6.37;;
80115;SDS011;69423;47.608;19.366;2023-05-10T00:15:53;5.93;;;5.73;;
80115;SDS011;69423;47.608;19.366;2023-05-10T00:16:24;6.80;;;6.60;;
80115;SDS011;69423;47.608;19.366;2023-05-10T00:16:55;6.30;;;6.10;;
80115;SDS011;69423;47.608;19.366;2023-05-10T00:17:26;6.17;;;5.97;;
80115;SDS011;69423;47.608;19.366;2023-05-10T00:17:56;6.43;;;6.23;;
80115;SDS011;69423;47.608;19.366;2023-05-10T00:18:27;6.67;;;6.47;;
80115;SDS011;69423;47.608;19.366;2023-05-10T00:18:58;6.33;;;6.23;;
80115;SDS011;69423;47.608;19.366;2023-05-10T00:19:29;5.70;;;5.70;;
80115;SDS011;69423;47.608;19.366;2023-05-10T00:20:00;5.77;;;5.70;;
80115;SDS011;69423;47.608;19.366;2023-05-10T00:20:31;6.10;;;5.93;;
80115;SDS011;69423;47.608;19.366;2023-05-10T00:21:02;6.37;;;6.37;;
80115;SDS011;69423;47.608;19.366;2023-05-10T00:21:33;5.60;;;5.60;;
80115;SDS011;69423;47.608;19.366;2023-05-10T00:22:04;5.77;;;5.63;;
80115;SDS011;69423;47.608;19.366;2023-05-10T00:22:34;6.20;;;5.97;;
80115;SDS011;69423;47.608;19.366;2023-05-10T00:23:05;5.93;;;5.83;;
80115;SDS011;69423;47.608;19.366;2023-05-10T00:23:36;5.73;;;5.70;;
80115;SDS011;69423;47.608;19.366;2023-05-10T00:24:07;5.67;;;5.67;;
80115;SDS011;69423;47.608;19.366;2023-05-10T00:24:38;5.63;;;5.63;;
80115;SDS011;69423;47.608;19.366;2023-05-10T00:25:09;5.67;;;5.67;;
80115;SDS011;69423;47.608;19.366;2023-05-10T00:25:40;5.57;;;5.57;;
80115;SDS011;69423;47.608;19.366;2023-05-10T00:26:11;5.63;;;5.63;;
80115;SDS011;69423;47.608;19.366;2023-05-10T00:26:42;5.57;;;5.47;;
80115;SDS011;69423;47.608;19.366;2023-05-10T00:27:13;5.97;;;5.83;;
80115;SDS011;69423;47.608;19.366;2023-05-10T00:27:44;6.17;;;6.00;;
80115;SDS011;69423;47.608;19.366;2023-05-10T00:28:15;6.17;;;5.97;;
80115;SDS011;69423;47.608;19.366;2023-05-10T00:28:46;6.47;;;6.27;;
80115;SDS011;69423;47.608;19.366;2023-05-10T00:29:17;6.43;;;6.17;;
80115;SDS011;69423;47.608;19.366;2023-05-10T00:29:48;6.37;;;6.27;;
80115;SDS011;69423;47.608;19.366;2023-05-10T00:30:18;6.20;;;6.17;;
80115;SDS011;69423;47.608;19.366;2023-05-10T00:30:49;6.13;;;6.10;;
80115;SDS011;69423;47.608;19.366;2023-05-10T00:31:20;6.13;;;5.97;;
80115;SDS011;69423;47.608;19.366;2023-05-10T00:31:51;5.80;;;5.63;;
80115;SDS011;69423;47.608;19.366;2023-05-10T00:32:22;6.17;;;6.00;;
80115;SDS011;69423;47.608;19.366;2023-05-10T00:32:53;6.10;;;5.97;;
80115;SDS011;69423;47.608;19.366;2023-05-10T00:33:24;5.80;;;5.60;;
80115;SDS011;69423;47.608;19.366;2023-05-10T00:33:55;6.17;;;5.97;;
80115;SDS011;69423;47.608;19.366;2023-05-10T00:34:26;6.53;;;6.33;;
80115;SDS011;69423;47.608;19.366;2023-05-10T00:34:57;5.80;;;5.80;;
80115;SDS011;69423;47.608;19.366;2023-05-10T00:35:28;5.87;;;5.73;;
80115;SDS011;69423;47.608;19.366;2023-05-10T00:35:59;5.97;;;5.83;;
80115;SDS011;69423;47.608;19.366;2023-05-10T00:36:30;5.90;;;5.70;;
80115;SDS011;69423;47.608;19.366;2023-05-10T00:37:01;5.97;;;5.93;;
80115;SDS011;69423;47.608;19.366;2023-05-10T00:37:33;6.03;;;5.90;;
80115;SDS011;69423;47.608;19.366;2023-05-10T00:38:04;6.43;;;6.23;;
80115;SDS011;69423;47.608;19.366;2023-05-10T00:38:34;6.77;;;6.57;;
80115;SDS011;69423;47.608;19.366;2023-05-10T00:39:05;6.23;;;6.03;;
80115;SDS011;69423;47.608;19.366;2023-05-10T00:39:36;6.37;;;6.13;;
80115;SDS011;69423;47.608;19.366;2023-05-10T00:40:07;6.60;;;6.33;;
80115;SDS011;69423;47.608;19.366;2023-05-10T00:40:38;6.23;;;6.03;;
80115;SDS011;69423;47.608;19.366;2023-05-10T00:41:09;6.37;;;6.17;;
80115;SDS011;69423;47.608;19.366;2023-05-10T00:41:40;6.40;;;6.17;;
80115;SDS011;69423;47.608;19.366;2023-05-10T00:42:11;6.03;;;5.83;;
80115;SDS011;69423;47.608;19.366;2023-05-10T00:42:42;5.80;;;5.70;;
80115;SDS011;69423;47.608;19.366;2023-05-10T00:43:13;5.73;;;5.73;;
80115;SDS011;69423;47.608;19.366;2023-05-10T00:43:43;5.77;;;5.77;;
80115;SDS011;69423;47.608;19.366;2023-05-10T00:44:14;5.97;;;5.83;;
80115;SDS011;69423;47.608;19.366;2023-05-10T00:44:45;6.13;;;5.93;;
80115;SDS011;69423;47.608;19.366;2023-05-10T00:45:17;6.10;;;5.83;;
80115;SDS011;69423;47.608;19.366;2023-05-10T00:45:47;5.93;;;5.70;;
80115;SDS011;69423;47.608;19.366;2023-05-10T00:46:19;6.33;;;6.10;;
80115;SDS011;69423;47.608;19.366;2023-05-10T00:46:51;6.37;;;6.13;;
80115;SDS011;69423;47.608;19.366;2023-05-10T00:47:23;5.97;;;5.73;;
80115;SDS011;69423;47.608;19.366;2023-05-10T00:47:54;5.83;;;5.60;;
80115;SDS011;69423;47.608;19.366;2023-05-10T00:48:26;6.00;;;5.90;;
80115;SDS011;69423;47.608;19.366;2023-05-10T00:48:58;6.13;;;6.07;;
80115;SDS011;69423;47.608;19.366;2023-05-10T00:49:29;6.27;;;6.20;;
80115;SDS011;69423;47.608;19.366;2023-05-10T00:50:01;5.73;;;5.70;;
80115;SDS011;69423;47.608;19.366;2023-05-10T00:50:33;6.17;;;6.13;;
80115;SDS011;69423;47.608;19.366;2023-05-10T00:51:04;5.87;;;5.87;;
80115;SDS011;69423;47.608;19.366;2023-05-10T00:51:35;5.97;;;5.87;;
80115;SDS011;69423;47.608;19.366;2023-05-10T00:52:06;6.13;;;5.97;;
80115;SDS011;69423;47.608;19.366;2023-05-10T00:52:39;6.23;;;6.17;;
80115;SDS011;69423;47.608;19.366;2023-05-10T00:53:10;6.40;;;6.20;;
80115;SDS011;69423;47.608;19.366;2023-05-10T00:53:41;6.13;;;5.93;;
80115;SDS011;69423;47.608;19.366;2023-05-10T00:54:12;6.03;;;5.83;;
80115;SDS011;69423;47.608;19.366;2023-05-10T00:54:45;6.00;;;5.80;;
80115;SDS011;69423;47.608;19.366;2023-05-10T00:55:18;5.80;;;5.60;;
80115;SDS011;69423;47.608;19.366;2023-05-10T00:55:49;6.00;;;5.80;;
80115;SDS011;69423;47.608;19.366;2023-05-10T00:56:20;5.87;;;5.67;;
80115;SDS011;69423;47.608;19.366;2023-05-10T00:56:53;5.90;;;5.77;;
80115;SDS011;69423;47.608;19.366;2023-05-10T00:57:24;6.33;;;6.20;;
80115;SDS011;69423;47.608;19.366;2023-05-10T00:57:55;6.00;;;5.80;;
80115;SDS011;69423;47.608;19.366;2023-05-10T00:58:27;6.43;;;6.20;;
80115;SDS011;69423;47.608;19.366;2023-05-10T00:58:58;6.13;;;5.93;;
80115;SDS011;69423;47.608;19.366;2023-05-10T00:59:30;6.17;;;5.97;;
80115;SDS011;69423;47.608;19.366;2023-05-10T01:00:01;6.17;;;5.97;;
80115;SDS011;69423;47.608;19.366;2023-05-10T01:00:33;6.17;;;6.00;;
80115;SDS011;69423;47.608;19.366;2023-05-10T01:01:04;6.00;;;5.93;;
80115;SDS011;69423;47.608;19.366;2023-05-10T01:01:36;6.30;;;6.17;;
80115;SDS011;69423;47.608;19.366;2023-05-10T01:02:08;5.90;;;5.87;;
80115;SDS011;69423;47.608;19.366;2023-05-10T01:02:39;5.70;;;5.60;;
80115;SDS011;69423;47.608;19.366;2023-05-10T01:03:11;6.57;;;6.40;;
80115;SDS011;69423;47.608;19.366;2023-05-10T01:03:43;6.07;;;5.90;;
80115;SDS011;69423;47.608;19.366;2023-05-10T01:04:14;6.10;;;5.90;;
80115;SDS011;69423;47.608;19.366;2023-05-10T01:04:45;6.13;;;5.83;;
80115;SDS011;69423;47.608;19.366;2023-05-10T01:05:16;6.60;;;6.37;;
80115;SDS011;69423;47.608;19.366;2023-05-10T01:05:47;6.23;;;6.13;;
80115;SDS011;69423;47.608;19.366;2023-05-10T01:06:18;6.30;;;6.27;;
80115;SDS011;69423;47.608;19.366;2023-05-10T01:06:49;6.27;;;6.23;;
80115;SDS011;69423;47.608;19.366;2023-05-10T01:07:20;6.43;;;6.30;;
80115;SDS011;69423;47.608;19.366;2023-05-10T01:07:50;5.83;;;5.77;;
80115;SDS011;69423;47.608;19.366;2023-05-10T01:08:21;5.97;;;5.97;;
80115;SDS011;69423;47.608;19.366;2023-05-10T01:08:52;5.77;;;5.77;;
80115;SDS011;69423;47.608;19.366;2023-05-10T01:09:23;5.67;;;5.63;;
80115;SDS011;69423;47.608;19.366;2023-05-10T01:09:56;6.33;;;6.17;;
80115;SDS011;69423;47.608;19.366;2023-05-10T01:10:28;6.37;;;6.17;;
80115;SDS011;69423;47.608;19.366;2023-05-10T01:11:00;6.17;;;5.97;;
80115;SDS011;69423;47.608;19.366;2023-05-10T01:11:31;7.07;;;6.87;;
80115;SDS011;69423;47.608;19.366;2023-05-10T01:12:01;6.07;;;5.93;;
80115;SDS011;69423;47.608;19.366;2023-05-10T01:12:34;6.00;;;5.87;;
80115;SDS011;69423;47.608;19.366;2023-05-10T01:13:08;6.07;;;6.07;;
80115;SDS011;69423;47.608;19.366;2023-05-10T01:13:40;5.73;;;5.70;;
80115;SDS011;69423;47.608;19.366;2023-05-10T01:14:13;6.70;;;6.60;;
80115;SDS011;69423;47.608;19.366;2023-05-10T01:14:47;6.47;;;6.40;;
80115;SDS011;69423;47.608;19.366;2023-05-10T01:15:18;6.43;;;6.40;;
80115;SDS011;69423;47.608;19.366;2023-05-10T01:15:51;6.37;;;6.17;;
80115;SDS011;69423;47.608;19.366;2023-05-10T01:16:23;6.73;;;6.43;;
80115;SDS011;69423;47.608;19.366;2023-05-10T01:16:55;6.67;;;6.43;;
80115;SDS011;69423;47.608;19.366;2023-05-10T01:17:27;6.40;;;6.17;;
80115;SDS011;69423;47.608;19.366;2023-05-10T01:17:58;6.57;;;6.37;;
80115;SDS011;69423;47.608;19.366;2023-05-10T01:18:30;6.33;;;6.10;;
80115;SDS011;69423;47.608;19.366;2023-05-10T01:19:06;6.70;;;6.40;;
80115;SDS011;69423;47.608;19.366;2023-05-10T01:19:50;6.23;;;6.03;;
80115;SDS011;69423;47.608;19.366;2023-05-10T01:20:21;6.50;;;6.47;;
80115;SDS011;69423;47.608;19.366;2023-05-10T01:28:39;6.27;;;6.03;;
80115;SDS011;69423;47.608;19.366;2023-05-10T01:30:08;6.53;;;6.33;;
80115;SDS011;69423;47.608;19.366;2023-05-10T01:34:54;6.17;;;6.10;;
80115;SDS011;69423;47.608;19.366;2023-05-10T01:35:36;6.80;;;6.63;;
80115;SDS011;69423;47.608;19.366;2023-05-10T01:37:02;7.10;;;6.90;;
80115;SDS011;69423;47.608;19.366;2023-05-10T01:38:40;7.63;;;7.37;;
80115;SDS011;69423;47.608;19.366;2023-05-10T01:40:08;6.40;;;6.37;;
80115;SDS011;69423;47.608;19.366;2023-05-10T01:41:10;7.23;;;7.13;;
80115;SDS011;69423;47.608;19.366;2023-05-10T01:42:00;6.53;;;6.30;;
80115;SDS011;69423;47.608;19.366;2023-05-10T01:42:44;7.03;;;6.77;;
80115;SDS011;69423;47.608;19.366;2023-05-10T01:43:21;6.23;;;6.07;;
80115;SDS011;69423;47.608;19.366;2023-05-10T01:44:16;6.43;;;6.23;;
80115;SDS011;69423;47.608;19.366;2023-05-10T01:44:57;6.67;;;6.43;;
80115;SDS011;69423;47.608;19.366;2023-05-10T01:46:14;6.87;;;6.57;;
80115;SDS011;69423;47.608;19.366;2023-05-10T01:46:41;6.43;;;6.13;;
80115;SDS011;69423;47.608;19.366;2023-05-10T01:47:24;6.43;;;6.30;;
80115;SDS011;69423;47.608;19.366;2023-05-10T01:48:11;5.80;;;5.80;;
80115;SDS011;69423;47.608;19.366;2023-05-10T01:48:53;6.00;;;6.00;;
80115;SDS011;69423;47.608;19.366;2023-05-10T01:49:29;5.90;;;5.90;;
80115;SDS011;69423;47.608;19.366;2023-05-10T01:50:06;6.13;;;6.13;;
80115;SDS011;69423;47.608;19.366;2023-05-10T01:50:45;5.83;;;5.83;;
80115;SDS011;69423;47.608;19.366;2023-05-10T01:51:24;6.00;;;6.00;;
80115;SDS011;69423;47.608;19.366;2023-05-10T01:52:00;6.43;;;6.43;;
80115;SDS011;69423;47.608;19.366;2023-05-10T01:52:38;6.20;;;6.17;;
80115;SDS011;69423;47.608;19.366;2023-05-10T01:53:14;6.60;;;6.40;;
80115;SDS011;69423;47.608;19.366;2023-05-10T01:53:49;6.60;;;6.47;;
80115;SDS011;69423;47.608;19.366;2023-05-10T01:54:24;6.73;;;6.60;;
80115;SDS011;69423;47.608;19.366;2023-05-10T01:54:55;6.73;;;6.53;;
80115;SDS011;69423;47.608;19.366;2023-05-10T01:55:32;6.50;;;6.30;;
80115;SDS011;69423;47.608;19.366;2023-05-10T01:56:10;7.27;;;6.97;;
80115;SDS011;69423;47.608;19.366;2023-05-10T01:56:44;7.20;;;6.93;;
80115;SDS011;69423;47.608;19.366;2023-05-10T01:57:21;7.50;;;7.13;;
80115;SDS011;69423;47.608;19.366;2023-05-10T01:58:40;7.43;;;7.13;;
80115;SDS011;69423;47.608;19.366;2023-05-10T01:58:55;6.63;;;6.37;;
80115;SDS011;69423;47.608;19.366;2023-05-10T01:59:29;6.97;;;6.73;;
80115;SDS011;69423;47.608;19.366;2023-05-10T02:00:06;6.03;;;5.93;;
80115;SDS011;69423;47.608;19.366;2023-05-10T02:00:45;6.43;;;6.23;;
80115;SDS011;69423;47.608;19.366;2023-05-10T02:01:20;6.10;;;6.03;;
80115;SDS011;69423;47.608;19.366;2023-05-10T02:01:52;6.77;;;6.57;;
80115;SDS011;69423;47.608;19.366;2023-05-10T02:02:24;6.93;;;6.67;;
80115;SDS011;69423;47.608;19.366;2023-05-10T02:02:57;7.37;;;7.07;;
80115;SDS011;69423;47.608;19.366;2023-05-10T02:03:32;6.43;;;6.20;;
80115;SDS011;69423;47.608;19.366;2023-05-10T02:04:07;6.37;;;6.17;;
80115;SDS011;69423;47.608;19.366;2023-05-10T02:04:41;6.70;;;6.63;;
80115;SDS011;69423;47.608;19.366;2023-05-10T02:05:14;6.37;;;6.20;;
80115;SDS011;69423;47.608;19.366;2023-05-10T02:05:48;6.37;;;6.13;;
80115;SDS011;69423;47.608;19.366;2023-05-10T02:06:22;6.67;;;6.47;;
80115;SDS011;69423;47.608;19.366;2023-05-10T02:06:56;6.47;;;6.47;;
80115;SDS011;69423;47.608;19.366;2023-05-10T02:07:28;6.50;;;6.50;;
80115;SDS011;69423;47.608;19.366;2023-05-10T02:07:59;6.60;;;6.60;;
80115;SDS011;69423;47.608;19.366;2023-05-10T02:08:32;6.70;;;6.67;;
80115;SDS011;69423;47.608;19.366;2023-05-10T02:09:06;6.77;;;6.53;;
80115;SDS011;69423;47.608;19.366;2023-05-10T02:09:41;6.77;;;6.63;;
80115;SDS011;69423;47.608;19.366;2023-05-10T02:10:18;6.83;;;6.83;;
80115;SDS011;69423;47.608;19.366;2023-05-10T02:10:51;6.53;;;6.53;;
80115;SDS011;69423;47.608;19.366;2023-05-10T02:11:25;6.63;;;6.60;;
80115;SDS011;69423;47.608;19.366;2023-05-10T02:11:59;6.13;;;6.13;;
80115;SDS011;69423;47.608;19.366;2023-05-10T02:12:36;6.37;;;6.37;;
80115;SDS011;69423;47.608;19.366;2023-05-10T02:13:11;6.17;;;6.17;;
80115;SDS011;69423;47.608;19.366;2023-05-10T02:13:44;6.50;;;6.47;;
80115;SDS011;69423;47.608;19.366;2023-05-10T02:14:18;6.53;;;6.43;;
80115;SDS011;69423;47.608;19.366;2023-05-10T02:14:50;6.63;;;6.43;;
80115;SDS011;69423;47.608;19.366;2023-05-10T02:15:24;6.90;;;6.70;;
80115;SDS011;69423;47.608;19.366;2023-05-10T02:15:56;6.90;;;6.63;;
80115;SDS011;69423;47.608;19.366;2023-05-10T02:16:28;6.83;;;6.63;;
80115;SDS011;69423;47.608;19.366;2023-05-10T02:17:02;7.10;;;6.90;;
80115;SDS011;69423;47.608;19.366;2023-05-10T02:17:36;6.77;;;6.77;;
80115;SDS011;69423;47.608;19.366;2023-05-10T02:18:08;6.83;;;6.83;;
80115;SDS011;69423;47.608;19.366;2023-05-10T02:18:41;6.93;;;6.87;;
80115;SDS011;69423;47.608;19.366;2023-05-10T02:19:12;6.77;;;6.63;;
80115;SDS011;69423;47.608;19.366;2023-05-10T02:19:45;6.07;;;6.03;;
80115;SDS011;69423;47.608;19.366;2023-05-10T02:20:18;6.93;;;6.77;;
80115;SDS011;69423;47.608;19.366;2023-05-10T02:20:50;7.10;;;6.87;;
80115;SDS011;69423;47.608;19.366;2023-05-10T02:21:25;7.27;;;7.03;;
80115;SDS011;69423;47.608;19.366;2023-05-10T02:21:59;6.73;;;6.57;;
80115;SDS011;69423;47.608;19.366;2023-05-10T02:22:32;7.10;;;6.93;;
80115;SDS011;69423;47.608;19.366;2023-05-10T02:23:05;7.10;;;6.83;;
80115;SDS011;69423;47.608;19.366;2023-05-10T02:23:39;7.57;;;7.27;;
80115;SDS011;69423;47.608;19.366;2023-05-10T02:24:10;8.03;;;7.73;;
80115;SDS011;69423;47.608;19.366;2023-05-10T02:24:42;7.77;;;7.47;;
80115;SDS011;69423;47.608;19.366;2023-05-10T02:25:15;7.50;;;7.23;;
80115;SDS011;69423;47.608;19.366;2023-05-10T02:25:48;7.33;;;7.07;;
80115;SDS011;69423;47.608;19.366;2023-05-10T02:26:21;7.40;;;7.17;;
80115;SDS011;69423;47.608;19.366;2023-05-10T02:26:55;7.80;;;7.50;;
80115;SDS011;69423;47.608;19.366;2023-05-10T02:27:27;7.43;;;7.37;;
80115;SDS011;69423;47.608;19.366;2023-05-10T02:28:01;6.90;;;6.90;;
80115;SDS011;69423;47.608;19.366;2023-05-10T02:28:35;7.73;;;7.47;;
80115;SDS011;69423;47.608;19.366;2023-05-10T02:29:08;7.63;;;7.33;;
80115;SDS011;69423;47.608;19.366;2023-05-10T02:29:42;6.67;;;6.63;;
80115;SDS011;69423;47.608;19.366;2023-05-10T02:30:14;6.83;;;6.83;;
80115;SDS011;69423;47.608;19.366;2023-05-10T02:30:46;6.87;;;6.87;;
80115;SDS011;69423;47.608;19.366;2023-05-10T02:31:18;7.10;;;7.10;;
80115;SDS011;69423;47.608;19.366;2023-05-10T02:31:51;7.43;;;7.30;;
80115;SDS011;69423;47.608;19.366;2023-05-10T02:32:24;7.20;;;7.00;;
80115;SDS011;69423;47.608;19.366;2023-05-10T02:32:57;7.47;;;7.17;;
80115;SDS011;69423;47.608;19.366;2023-05-10T02:33:30;7.93;;;7.63;;
80115;SDS011;69423;47.608;19.366;2023-05-10T02:34:02;7.67;;;7.30;;
80115;SDS011;69423;47.608;19.366;2023-05-10T02:34:36;7.27;;;6.97;;
80115;SDS011;69423;47.608;19.366;2023-05-10T02:35:08;8.07;;;7.70;;
80115;SDS011;69423;47.608;19.366;2023-05-10T02:35:41;7.87;;;7.60;;
80115;SDS011;69423;47.608;19.366;2023-05-10T02:36:12;6.70;;;6.60;;
80115;SDS011;69423;47.608;19.366;2023-05-10T02:36:45;7.57;;;7.33;;
80115;SDS011;69423;47.608;19.366;2023-05-10T02:37:17;8.00;;;7.73;;
80115;SDS011;69423;47.608;19.366;2023-05-10T02:37:50;8.00;;;7.70;;
80115;SDS011;69423;47.608;19.366;2023-05-10T02:38:24;8.20;;;7.93;;
80115;SDS011;69423;47.608;19.366;2023-05-10T02:38:57;7.50;;;7.27;;
80115;SDS011;69423;47.608;19.366;2023-05-10T02:39:32;8.37;;;8.03;;
80115;SDS011;69423;47.608;19.366;2023-05-10T02:40:04;8.43;;;8.03;;
80115;SDS011;69423;47.608;19.366;2023-05-10T02:40:36;7.93;;;7.60;;
80115;SDS011;69423;47.608;19.366;2023-05-10T02:41:09;7.53;;;7.23;;
80115;SDS011;69423;47.608;19.366;2023-05-10T02:41:41;8.13;;;7.83;;
80115;SDS011;69423;47.608;19.366;2023-05-10T02:42:18;8.30;;;8.00;;
80115;SDS011;69423;47.608;19.366;2023-05-10T02:42:54;7.83;;;7.63;;
80115;SDS011;69423;47.608;19.366;2023-05-10T02:43:26;7.77;;;7.57;;
80115;SDS011;69423;47.608;19.366;2023-05-10T02:44:01;7.30;;;7.13;;
80115;SDS011;69423;47.608;19.366;2023-05-10T02:44:35;7.77;;;7.57;;
80115;SDS011;69423;47.608;19.366;2023-05-10T02:45:12;7.63;;;7.53;;
80115;SDS011;69423;47.608;19.366;2023-05-10T02:45:47;7.23;;;7.20;;
80115;SDS011;69423;47.608;19.366;2023-05-10T02:46:19;7.53;;;7.50;;
80115;SDS011;69423;47.608;19.366;2023-05-10T02:46:50;7.80;;;7.63;;
80115;SDS011;69423;47.608;19.366;2023-05-10T02:47:21;7.73;;;7.47;;
80115;SDS011;69423;47.608;19.366;2023-05-10T02:47:52;7.80;;;7.50;;
80115;SDS011;69423;47.608;19.366;2023-05-10T02:48:23;7.83;;;7.73;;
80115;SDS011;69423;47.608;19.366;2023-05-10T02:48:54;7.60;;;7.60;;
80115;SDS011;69423;47.608;19.366;2023-05-10T02:49:25;7.90;;;7.77;;
80115;SDS011;69423;47.608;19.366;2023-05-10T02:49:56;8.27;;;8.10;;
80115;SDS011;69423;47.608;19.366;2023-05-10T02:50:27;7.57;;;7.57;;
80115;SDS011;69423;47.608;19.366;2023-05-10T02:51:04;8.27;;;8.13;;
80115;SDS011;69423;47.608;19.366;2023-05-10T02:51:40;8.20;;;8.10;;
80115;SDS011;69423;47.608;19.366;2023-05-10T02:52:16;8.70;;;8.37;;
80115;SDS011;69423;47.608;19.366;2023-05-10T02:52:54;7.40;;;7.10;;
80115;SDS011;69423;47.608;19.366;2023-05-10T02:53:34;8.53;;;8.20;;
80115;SDS011;69423;47.608;19.366;2023-05-10T02:54:27;8.63;;;8.30;;
80115;SDS011;69423;47.608;19.366;2023-05-10T02:55:02;8.33;;;7.97;;
80115;SDS011;69423;47.608;19.366;2023-05-10T02:55:36;8.43;;;8.10;;
80115;SDS011;69423;47.608;19.366;2023-05-10T02:56:14;8.97;;;8.67;;
80115;SDS011;69423;47.608;19.366;2023-05-10T02:56:55;8.33;;;8.00;;
80115;SDS011;69423;47.608;19.366;2023-05-10T02:57:34;8.03;;;7.77;;
80115;SDS011;69423;47.608;19.366;2023-05-10T02:58:08;7.73;;;7.73;;
80115;SDS011;69423;47.608;19.366;2023-05-10T02:58:39;7.27;;;7.27;;
80115;SDS011;69423;47.608;19.366;2023-05-10T02:59:10;7.90;;;7.90;;
80115;SDS011;69423;47.608;19.366;2023-05-10T02:59:41;7.73;;;7.70;;
80115;SDS011;69423;47.608;19.366;2023-05-10T03:00:15;7.87;;;7.73;;
80115;SDS011;69423;47.608;19.366;2023-05-10T03:00:46;8.17;;;7.87;;
80115;SDS011;69423;47.608;19.366;2023-05-10T03:01:17;8.00;;;7.97;;
80115;SDS011;69423;47.608;19.366;2023-05-10T03:01:48;8.47;;;8.40;;
80115;SDS011;69423;47.608;19.366;2023-05-10T03:02:20;8.57;;;8.40;;
80115;SDS011;69423;47.608;19.366;2023-05-10T03:02:51;8.97;;;8.77;;
80115;SDS011;69423;47.608;19.366;2023-05-10T03:03:22;9.17;;;8.83;;
80115;SDS011;69423;47.608;19.366;2023-05-10T03:03:53;8.90;;;8.53;;
80115;SDS011;69423;47.608;19.366;2023-05-10T03:04:24;9.13;;;8.77;;
80115;SDS011;69423;47.608;19.366;2023-05-10T03:04:55;8.73;;;8.37;;
80115;SDS011;69423;47.608;19.366;2023-05-10T03:05:26;9.23;;;8.83;;
80115;SDS011;69423;47.608;19.366;2023-05-10T03:05:57;9.17;;;8.83;;
80115;SDS011;69423;47.608;19.366;2023-05-10T03:06:28;8.73;;;8.43;;
80115;SDS011;69423;47.608;19.366;2023-05-10T03:06:59;8.77;;;8.47;;
80115;SDS011;69423;47.608;19.366;2023-05-10T03:07:30;8.87;;;8.53;;
80115;SDS011;69423;47.608;19.366;2023-05-10T03:08:02;9.00;;;8.67;;
80115;SDS011;69423;47.608;19.366;2023-05-10T03:08:35;8.80;;;8.50;;
80115;SDS011;69423;47.608;19.366;2023-05-10T03:09:06;9.27;;;8.87;;
80115;SDS011;69423;47.608;19.366;2023-05-10T03:09:39;9.20;;;8.83;;
80115;SDS011;69423;47.608;19.366;2023-05-10T03:10:11;8.93;;;8.67;;
80115;SDS011;69423;47.608;19.366;2023-05-10T03:10:46;9.47;;;9.27;;
80115;SDS011;69423;47.608;19.366;2023-05-10T03:11:44;8.73;;;8.53;;
80115;SDS011;69423;47.608;19.366;2023-05-10T03:14:11;9.10;;;8.97;;
80115;SDS011;69423;47.608;19.366;2023-05-10T03:14:25;9.43;;;9.07;;
80115;SDS011;69423;47.608;19.366;2023-05-10T03:15:13;8.97;;;8.67;;
80115;SDS011;69423;47.608;19.366;2023-05-10T03:16:47;8.90;;;8.67;;
80115;SDS011;69423;47.608;19.366;2023-05-10T03:18:46;8.57;;;8.47;;
80115;SDS011;69423;47.608;19.366;2023-05-10T03:19:32;8.27;;;8.27;;
80115;SDS011;69423;47.608;19.366;2023-05-10T03:20:31;8.53;;;8.27;;
80115;SDS011;69423;47.608;19.366;2023-05-10T03:21:10;8.90;;;8.53;;
80115;SDS011;69423;47.608;19.366;2023-05-10T03:21:43;9.70;;;9.27;;
80115;SDS011;69423;47.608;19.366;2023-05-10T03:22:29;9.13;;;8.70;;
80115;SDS011;69423;47.608;19.366;2023-05-10T03:23:13;8.90;;;8.47;;
80115;SDS011;69423;47.608;19.366;2023-05-10T03:23:49;8.67;;;8.20;;
80115;SDS011;69423;47.608;19.366;2023-05-10T03:24:27;9.13;;;8.73;;
80115;SDS011;69423;47.608;19.366;2023-05-10T03:24:59;9.57;;;9.10;;
80115;SDS011;69423;47.608;19.366;2023-05-10T03:25:34;9.37;;;8.93;;
80115;SDS011;69423;47.608;19.366;2023-05-10T03:26:06;8.77;;;8.70;;
80115;SDS011;69423;47.608;19.366;2023-05-10T03:26:38;8.37;;;8.20;;
80115;SDS011;69423;47.608;19.366;2023-05-10T03:27:11;9.10;;;8.77;;
80115;SDS011;69423;47.608;19.366;2023-05-10T03:27:44;9.07;;;8.67;;
80115;SDS011;69423;47.608;19.366;2023-05-10T03:28:17;9.37;;;8.97;;
80115;SDS011;69423;47.608;19.366;2023-05-10T03:28:50;8.80;;;8.47;;
80115;SDS011;69423;47.608;19.366;2023-05-10T03:29:23;9.97;;;9.57;;
80115;SDS011;69423;47.608;19.366;2023-05-10T03:29:56;9.77;;;9.33;;
80115;SDS011;69423;47.608;19.366;2023-05-10T03:30:28;10.07;;;9.67;;
80115;SDS011;69423;47.608;19.366;2023-05-10T03:31:00;9.63;;;9.23;;
80115;SDS011;69423;47.608;19.366;2023-05-10T03:31:34;9.30;;;8.97;;
80115;SDS011;69423;47.608;19.366;2023-05-10T03:32:05;9.27;;;8.97;;
80115;SDS011;69423;47.608;19.366;2023-05-10T03:32:36;9.17;;;8.83;;
80115;SDS011;69423;47.608;19.366;2023-05-10T03:33:08;9.17;;;8.93;;
80115;SDS011;69423;47.608;19.366;2023-05-10T03:33:48;8.83;;;8.63;;
80115;SDS011;69423;47.608;19.366;2023-05-10T03:34:23;8.93;;;8.77;;
80115;SDS011;69423;47.608;19.366;2023-05-10T03:34:57;8.97;;;8.70;;
80115;SDS011;69423;47.608;19.366;2023-05-10T03:35:27;9.60;;;9.20;;
80115;SDS011;69423;47.608;19.366;2023-05-10T03:35:58;8.87;;;8.50;;
80115;SDS011;69423;47.608;19.366;2023-05-10T03:36:29;9.30;;;8.87;;
80115;SDS011;69423;47.608;19.366;2023-05-10T03:37:00;9.80;;;9.37;;
80115;SDS011;69423;47.608;19.366;2023-05-10T03:37:31;8.87;;;8.60;;
80115;SDS011;69423;47.608;19.366;2023-05-10T03:38:02;8.60;;;8.53;;